Greeley West High School, Colorado
Current Conditions -  °F | °C
As of 2:55 PM on Tuesday 25 Nov 2014 (Local Time) from KGXY Reporting Station
Clear Clear  
Wind Chill:   Ceiling: Unl
Heat Index:   Visibility: 10mi
Dew Point: -7°   Wind: 8mph
Humidity: 34%   Direction: 220°SW
Pressure: 29.86"   Gusts: NA
Location:  40.41412°N, 104.7064°W
Report Text: KGXY 252155Z AUTO 22007KT 10SM CLR 08/M07 A2986 RMK AO1
Loading
Personal Weather Stations






























Interactive Weather Map New forecast layout! Learn more

10-Day Weather Forecast

Advertisements
Track Severe Weather on mobile